Time;durP1;ratioP1;P1;durP2;ratioP2;P2;SDS_P1;SDS_P2;PMS_P1;PMS_P2;Temp;Humidity;BMP_temperature;BMP_pressure;BME280_temperature;BME280_humidity;BME280_pressure;Samples;Min_cycle;Max_cycle;Signal;HPM_P1;HPM_P2
2022/09/30 00:00:44;;;;;;;2.23;2.00;;;23.90;68.10;;;;;;5056447;28;20550;-94
2022/09/30 00:03:10;;;;;;;1.90;1.80;;;24.00;68.20;;;;;;5056629;28;20460;-94
2022/09/30 00:05:38;;;;;;;1.90;1.80;;;24.00;68.20;;;;;;5055454;28;20446;-94
2022/09/30 00:08:06;;;;;;;1.57;1.47;;;23.90;68.00;;;;;;5054725;28;20460;-96
2022/09/30 00:10:33;;;;;;;2.60;2.07;;;23.90;68.00;;;;;;5055390;28;20450;-96
2022/09/30 00:13:00;;;;;;;1.80;1.70;;;23.90;68.00;;;;;;5055883;28;20438;-93
2022/09/30 00:15:27;;;;;;;1.70;1.50;;;23.90;68.00;;;;;;5055386;28;20446;-93
2022/09/30 00:17:54;;;;;;;2.70;1.50;;;23.90;68.00;;;;;;5055082;28;20450;-94
2022/09/30 00:20:21;;;;;;;1.77;1.60;;;23.90;67.90;;;;;;5056287;28;20883;-96
2022/09/30 00:22:50;;;;;;;2.70;1.93;;;23.90;67.90;;;;;;5058259;28;20450;-94
2022/09/30 00:25:18;;;;;;;2.07;1.97;;;23.90;67.90;;;;;;5038551;28;20477;-94
2022/09/30 00:27:45;;;;;;;2.00;1.90;;;23.90;67.90;;;;;;5056686;28;20503;-94
2022/09/30 00:30:12;;;;;;;2.47;2.27;;;23.90;67.90;;;;;;5055535;28;20476;-94
2022/09/30 00:32:39;;;;;;;2.00;1.90;;;23.90;68.70;;;;;;5055037;28;20538;-95
2022/09/30 00:38:29;;;;;;;1.70;1.60;;;23.90;67.70;;;;;;5054352;28;20431;-94
2022/09/30 00:40:58;;;;;;;1.73;1.63;;;23.90;67.90;;;;;;5054643;28;20489;-95
2022/09/30 00:43:41;;;;;;;1.80;1.70;;;23.90;67.90;;;;;;5055035;28;20449;-96
2022/09/30 00:46:18;;;;;;;1.67;1.57;;;23.90;67.70;;;;;;5055484;28;20446;-93
2022/09/30 00:48:49;;;;;;;2.03;1.73;;;23.90;67.80;;;;;;5054432;28;20453;-93
2022/09/30 00:51:17;;;;;;;1.80;1.70;;;23.90;67.70;;;;;;5056029;28;20442;-93
2022/09/30 00:53:51;;;;;;;1.67;1.57;;;23.90;67.70;;;;;;5055288;28;20442;-93
2022/09/30 00:56:23;;;;;;;2.20;2.10;;;23.90;67.60;;;;;;5055952;28;20925;-96
2022/09/30 00:58:54;;;;;;;1.73;1.63;;;23.90;67.70;;;;;;5054974;28;20484;-93
2022/09/30 01:01:22;;;;;;;1.83;1.50;;;23.90;67.60;;;;;;5055645;28;20501;-94
2022/09/30 01:03:54;;;;;;;1.80;1.53;;;23.80;67.50;;;;;;5054730;28;20515;-96
2022/09/30 01:06:23;;;;;;;1.67;1.57;;;23.80;67.50;;;;;;5055273;28;20426;-93
2022/09/30 01:08:50;;;;;;;3.10;1.60;;;23.80;67.50;;;;;;5054565;28;20445;-94
2022/09/30 01:11:19;;;;;;;2.30;2.10;;;23.80;67.50;;;;;;5054356;28;20493;-94
2022/09/30 01:13:51;;;;;;;1.90;1.80;;;23.80;67.40;;;;;;5054784;28;20499;-94
2022/09/30 01:16:39;;;;;;;2.60;1.83;;;23.80;67.40;;;;;;5055468;28;20464;-93
2022/09/30 01:19:24;;;;;;;2.90;1.80;;;23.90;67.40;;;;;;5055191;28;20477;-95
2022/09/30 01:22:25;;;;;;;1.87;1.77;;;23.90;67.40;;;;;;5055574;28;20569;-96
2022/09/30 01:25:17;;;;;;;2.00;1.90;;;23.90;67.40;;;;;;5054927;28;20458;-93
2022/09/30 01:28:24;;;;;;;1.83;1.73;;;23.80;67.30;;;;;;5055070;28;20964;-94
2022/09/30 01:31:07;;;;;;;1.60;1.50;;;23.80;67.30;;;;;;5039553;28;20528;-93
2022/09/30 01:33:44;;;;;;;2.07;1.77;;;23.80;67.40;;;;;;5055390;28;20908;-94
2022/09/30 01:36:24;;;;;;;1.73;1.63;;;23.80;67.50;;;;;;5055079;28;20776;-94
2022/09/30 01:39:02;;;;;;;2.07;1.87;;;23.80;67.40;;;;;;5058445;28;20426;-96
2022/09/30 01:41:42;;;;;;;1.97;1.87;;;23.80;67.40;;;;;;5057631;28;20523;-93
2022/09/30 01:44:16;;;;;;;1.70;1.60;;;23.80;67.30;;;;;;5057691;28;20441;-94
2022/09/30 01:46:53;;;;;;;1.80;1.70;;;23.80;67.40;;;;;;5058559;28;20531;-91
2022/09/30 01:49:26;;;;;;;1.60;1.50;;;23.80;67.30;;;;;;5046432;28;20782;-94
2022/09/30 01:52:04;;;;;;;1.50;1.40;;;23.80;67.30;;;;;;5062868;28;20485;-96
2022/09/30 01:54:37;;;;;;;1.80;1.70;;;23.80;67.30;;;;;;5059053;28;20446;-96
2022/09/30 01:57:11;;;;;;;1.70;1.60;;;23.80;67.30;;;;;;5057636;28;20511;-94
2022/09/30 01:59:45;;;;;;;1.73;1.63;;;23.80;67.30;;;;;;5058059;28;20796;-96
2022/09/30 02:02:18;;;;;;;1.77;1.67;;;23.80;67.30;;;;;;5057585;28;20481;-94
2022/09/30 02:04:51;;;;;;;1.57;1.47;;;23.80;67.30;;;;;;5057090;28;20476;-94
2022/09/30 02:07:24;;;;;;;1.70;1.60;;;23.80;67.20;;;;;;5057397;28;20932;-93
2022/09/30 02:09:56;;;;;;;1.50;1.40;;;23.80;67.10;;;;;;5056867;28;20466;-94
2022/09/30 02:12:28;;;;;;;1.70;1.60;;;23.80;67.10;;;;;;5056687;28;20484;-93
2022/09/30 02:15:01;;;;;;;1.70;1.60;;;23.80;67.10;;;;;;5057230;28;20492;-94
2022/09/30 02:17:33;;;;;;;1.80;1.70;;;23.80;67.10;;;;;;5057158;28;20917;-93
2022/09/30 02:20:05;;;;;;;1.70;1.60;;;23.80;67.10;;;;;;5057207;28;20450;-93
2022/09/30 02:22:40;;;;;;;1.40;1.30;;;23.80;67.10;;;;;;5057083;28;20564;-93
2022/09/30 02:25:10;;;;;;;2.00;1.90;;;23.80;67.10;;;;;;5056793;28;20436;-95
2022/09/30 02:27:45;;;;;;;1.73;1.63;;;23.70;66.90;;;;;;5056691;28;20905;-96
2022/09/30 02:30:13;;;;;;;2.00;1.90;;;23.80;67.00;;;;;;5057218;28;20438;-93
2022/09/30 02:32:48;;;;;;;1.60;1.50;;;23.70;66.90;;;;;;5056426;28;20544;-96
2022/09/30 02:38:41;;;;;;;1.53;1.43;;;23.70;66.80;;;;;;5056198;28;20405;-95
2022/09/30 02:41:11;;;;;;;1.40;1.30;;;23.70;67.00;;;;;;5056113;28;20568;-93
2022/09/30 02:43:40;;;;;;;1.50;1.40;;;23.70;67.00;;;;;;5057279;28;20541;-96
2022/09/30 02:46:15;;;;;;;1.70;1.60;;;23.80;67.10;;;;;;5056080;28;20857;-93
2022/09/30 02:48:49;;;;;;;2.03;1.93;;;23.70;66.90;;;;;;5056057;28;20469;-93
2022/09/30 02:51:22;;;;;;;1.93;1.83;;;23.70;66.90;;;;;;5056192;28;20473;-92
2022/09/30 02:53:58;;;;;;;2.10;2.00;;;23.70;66.90;;;;;;5056521;28;20472;-92
2022/09/30 02:56:29;;;;;;;2.47;2.13;;;23.70;66.10;;;;;;5056180;28;20455;-95
2022/09/30 02:58:57;;;;;;;2.07;1.97;;;23.60;65.10;;;;;;5055977;28;20450;-91
2022/09/30 03:01:25;;;;;;;6.03;2.27;;;23.60;64.90;;;;;;5056700;28;20525;-91
2022/09/30 03:03:56;;;;;;;1.50;1.40;;;23.60;65.60;;;;;;5056364;28;20861;-91
2022/09/30 03:06:24;;;;;;;2.07;1.97;;;23.40;65.10;;;;;;5055770;28;20828;-91
2022/09/30 03:08:52;;;;;;;1.90;1.70;;;23.60;65.70;;;;;;5055323;28;20446;-96
2022/09/30 03:11:24;;;;;;;4.50;1.30;;;23.50;65.80;;;;;;5056129;28;20492;-96
2022/09/30 03:14:37;;;;;;;2.00;1.80;;;23.60;65.80;;;;;;5056372;28;20481;-92
2022/09/30 03:17:45;;;;;;;2.00;1.90;;;23.60;65.80;;;;;;4991656;28;20590;-92
2022/09/30 03:21:04;;;;;;;1.83;1.73;;;23.60;65.60;;;;;;4974322;28;20457;-95
2022/09/30 03:24:17;;;;;;;5.73;1.87;;;23.50;66.00;;;;;;4943772;28;20456;-95
2022/09/30 03:27:05;;;;;;;2.17;2.03;;;23.40;65.60;;;;;;4975130;28;20968;-94
2022/09/30 03:29:44;;;;;;;1.83;1.73;;;23.50;65.60;;;;;;4997396;28;20459;-93
2022/09/30 03:32:27;;;;;;;2.13;2.03;;;23.50;66.00;;;;;;5056302;28;20452;-96
2022/09/30 03:35:04;;;;;;;2.03;1.93;;;23.60;65.50;;;;;;5055238;28;21004;-96
2022/09/30 03:37:44;;;;;;;1.87;1.77;;;23.50;65.80;;;;;;5055089;28;20544;-96
2022/09/30 03:40:17;;;;;;;2.20;1.90;;;23.60;66.10;;;;;;5055713;28;20450;-94
2022/09/30 03:42:50;;;;;;;1.83;1.73;;;23.50;66.10;;;;;;5055488;28;20506;-95
2022/09/30 03:45:23;;;;;;;2.63;2.40;;;23.50;66.10;;;;;;5056143;28;20442;-94
2022/09/30 03:47:55;;;;;;;1.90;1.80;;;23.50;66.10;;;;;;5055080;28;20553;-96
2022/09/30 03:50:25;;;;;;;2.00;1.90;;;23.50;66.10;;;;;;5055461;28;20540;-94
2022/09/30 03:52:54;;;;;;;2.33;2.13;;;23.50;66.10;;;;;;5054741;28;20533;-94
2022/09/30 03:55:23;;;;;;;2.40;2.20;;;23.50;66.10;;;;;;5054837;28;20478;-96
2022/09/30 03:57:53;;;;;;;2.00;1.90;;;23.50;66.10;;;;;;5054742;28;20445;-94
2022/09/30 04:00:20;;;;;;;1.90;1.80;;;23.60;66.30;;;;;;5054422;28;20469;-96
2022/09/30 04:02:47;;;;;;;1.83;1.73;;;23.50;66.10;;;;;;5054731;28;20593;-94
2022/09/30 04:05:14;;;;;;;1.80;1.70;;;23.50;66.10;;;;;;5054755;28;20450;-94
2022/09/30 04:07:41;;;;;;;1.77;1.67;;;23.50;66.10;;;;;;5054327;28;20442;-94
2022/09/30 04:10:10;;;;;;;2.00;1.90;;;23.50;66.20;;;;;;5054435;28;20860;-94
2022/09/30 04:12:37;;;;;;;3.00;1.53;;;23.50;66.20;;;;;;5054400;28;20580;-96
2022/09/30 04:15:05;;;;;;;2.00;1.90;;;23.50;66.20;;;;;;5054204;28;21056;-95
2022/09/30 04:17:32;;;;;;;2.40;2.30;;;23.50;66.10;;;;;;5054752;28;20541;-94
2022/09/30 04:19:59;;;;;;;1.87;1.63;;;23.50;66.10;;;;;;5053835;28;20492;-96
2022/09/30 04:22:26;;;;;;;2.60;2.40;;;23.50;66.10;;;;;;5054324;28;20527;-94
2022/09/30 04:24:53;;;;;;;5.50;1.93;;;23.50;66.10;;;;;;5054913;28;20481;-95
2022/09/30 04:27:22;;;;;;;2.00;1.90;;;23.50;66.10;;;;;;5053961;28;20505;-95
2022/09/30 04:29:49;;;;;;;2.40;1.77;;;23.50;66.00;;;;;;5054194;28;20534;-94
2022/09/30 04:32:15;;;;;;;1.80;1.70;;;23.50;66.10;;;;;;5054449;28;20474;-94
2022/09/30 04:34:42;;;;;;;1.70;1.60;;;23.50;66.00;;;;;;5055054;28;20496;-94
2022/09/30 04:37:10;;;;;;;1.63;1.53;;;23.50;66.10;;;;;;5055301;28;20453;-96
2022/09/30 04:39:37;;;;;;;3.50;1.90;;;23.50;66.10;;;;;;5054209;28;20465;-94
2022/09/30 04:42:04;;;;;;;1.80;1.70;;;23.50;66.10;;;;;;5054084;28;20496;-96
2022/09/30 04:44:34;;;;;;;2.17;2.07;;;23.60;66.10;;;;;;5053875;28;20476;-95
2022/09/30 04:47:01;;;;;;;2.63;2.20;;;23.50;66.00;;;;;;5055280;28;20470;-94
2022/09/30 04:49:28;;;;;;;2.10;1.87;;;23.50;66.10;;;;;;5054182;28;20465;-96
2022/09/30 04:51:56;;;;;;;1.80;1.70;;;23.50;66.00;;;;;;5054445;28;20452;-93
2022/09/30 04:54:23;;;;;;;1.60;1.50;;;23.50;66.00;;;;;;5054385;28;20484;-94
2022/09/30 04:56:51;;;;;;;1.80;1.70;;;23.50;66.00;;;;;;5055197;28;20478;-94
2022/09/30 04:59:17;;;;;;;2.20;2.10;;;23.50;66.00;;;;;;5054219;28;20488;-95
2022/09/30 05:01:46;;;;;;;1.83;1.73;;;23.50;66.00;;;;;;5054264;28;20462;-95
2022/09/30 05:04:15;;;;;;;1.50;1.40;;;23.50;66.00;;;;;;5054254;28;20500;-94
2022/09/30 05:06:42;;;;;;;1.50;1.40;;;23.50;66.00;;;;;;5054649;28;20449;-95
2022/09/30 05:09:08;;;;;;;1.70;1.60;;;23.50;66.00;;;;;;5055840;28;20469;-96
2022/09/30 05:11:36;;;;;;;1.80;1.70;;;23.50;65.90;;;;;;5054119;28;20542;-94
2022/09/30 05:14:07;;;;;;;1.87;1.77;;;23.60;66.00;;;;;;5057864;28;20450;-94
2022/09/30 05:16:35;;;;;;;1.57;1.47;;;23.50;65.90;;;;;;5058979;28;20776;-96
2022/09/30 05:19:03;;;;;;;1.97;1.87;;;23.50;65.90;;;;;;5057979;28;20438;-95
2022/09/30 05:21:30;;;;;;;1.53;1.30;;;23.50;65.90;;;;;;5057398;28;20509;-94
2022/09/30 05:23:58;;;;;;;1.50;1.40;;;23.50;65.90;;;;;;5057550;28;20979;-94
2022/09/30 05:26:25;;;;;;;2.27;1.90;;;23.50;65.90;;;;;;5057751;28;20450;-96
2022/09/30 05:28:52;;;;;;;1.70;1.60;;;23.50;65.90;;;;;;5057981;28;20505;-94
2022/09/30 05:31:19;;;;;;;1.63;1.53;;;23.40;65.80;;;;;;5058487;28;20474;-94
2022/09/30 05:33:47;;;;;;;1.93;1.83;;;23.40;65.80;;;;;;5057137;28;20998;-94
2022/09/30 05:36:16;;;;;;;1.67;1.57;;;23.40;65.70;;;;;;5057544;28;20540;-95
2022/09/30 05:38:43;;;;;;;1.67;1.57;;;23.40;65.80;;;;;;5058137;28;20477;-94
2022/09/30 05:41:12;;;;;;;2.73;1.70;;;23.40;65.80;;;;;;5057924;28;20493;-94
2022/09/30 05:43:40;;;;;;;1.40;1.30;;;23.40;65.90;;;;;;5057300;28;20477;-96
2022/09/30 05:46:07;;;;;;;1.90;1.80;;;23.40;65.90;;;;;;5057519;28;20554;-96
2022/09/30 05:48:35;;;;;;;1.60;1.50;;;23.40;65.80;;;;;;5057841;28;20469;-96
2022/09/30 05:51:02;;;;;;;1.60;1.50;;;23.40;65.80;;;;;;5057909;28;20532;-96
2022/09/30 05:53:31;;;;;;;1.60;1.50;;;23.40;65.80;;;;;;5057111;28;20457;-96
2022/09/30 05:55:59;;;;;;;1.77;1.67;;;23.50;65.90;;;;;;5058268;28;20458;-95
2022/09/30 05:58:26;;;;;;;1.70;1.60;;;23.40;65.80;;;;;;5058415;28;20918;-94
2022/09/30 06:01:07;;;;;;;1.67;1.57;;;23.40;65.80;;;;;;5062254;28;20484;-95
2022/09/30 06:03:34;;;;;;;1.77;1.67;;;23.40;65.70;;;;;;5059003;28;20504;-95
2022/09/30 06:06:02;;;;;;;1.87;1.73;;;23.40;65.80;;;;;;5058533;28;20461;-93
2022/09/30 06:08:29;;;;;;;1.80;1.70;;;23.50;65.90;;;;;;5059151;28;20963;-96
2022/09/30 06:10:58;;;;;;;1.90;1.80;;;23.50;65.70;;;;;;5056697;28;20835;-94
2022/09/30 06:13:25;;;;;;;2.10;2.00;;;23.40;65.70;;;;;;5056948;28;20452;-96
2022/09/30 06:15:56;;;;;;;1.83;1.73;;;23.40;65.60;;;;;;5057236;28;20460;-96
2022/09/30 06:18:24;;;;;;;1.77;1.67;;;23.40;65.60;;;;;;5056826;28;20937;-95
2022/09/30 06:20:51;;;;;;;1.90;1.80;;;23.50;65.80;;;;;;5057184;28;20480;-96
2022/09/30 06:23:21;;;;;;;1.87;1.77;;;23.40;65.80;;;;;;5056392;28;20481;-96
2022/09/30 06:25:50;;;;;;;1.80;1.70;;;23.40;65.80;;;;;;5056592;28;20445;-94
2022/09/30 06:28:19;;;;;;;1.57;1.47;;;23.40;66.70;;;;;;5056706;28;20453;-95
2022/09/30 06:30:46;;;;;;;1.90;1.80;;;23.40;65.80;;;;;;5057204;28;20549;-94
2022/09/30 06:33:14;;;;;;;1.80;1.70;;;23.40;65.80;;;;;;5056562;28;20496;-95
2022/09/30 06:35:42;;;;;;;2.33;2.23;;;23.40;65.90;;;;;;5057090;28;20494;-94
2022/09/30 06:38:09;;;;;;;1.80;1.70;;;23.40;65.90;;;;;;5056522;28;20531;-96
2022/09/30 06:40:37;;;;;;;1.70;1.60;;;23.40;65.90;;;;;;5056110;28;20498;-96
2022/09/30 06:43:06;;;;;;;1.67;1.57;;;23.40;66.00;;;;;;5056474;28;20531;-94
2022/09/30 06:45:36;;;;;;;1.43;1.30;;;23.40;66.10;;;;;;5056883;28;20445;-95
2022/09/30 06:48:05;;;;;;;1.50;1.40;;;23.40;66.10;;;;;;5056700;28;20442;-96
2022/09/30 06:50:33;;;;;;;2.90;1.90;;;23.20;66.00;;;;;;5055926;28;20450;-96
2022/09/30 06:53:01;;;;;;;1.90;1.80;;;23.40;66.40;;;;;;5056110;28;20472;-95
2022/09/30 06:55:28;;;;;;;1.77;1.67;;;23.40;66.30;;;;;;5056278;28;20552;-96
2022/09/30 06:57:56;;;;;;;1.80;1.70;;;23.50;66.50;;;;;;5056058;28;20484;-95
2022/09/30 07:00:24;;;;;;;2.03;1.90;;;23.50;66.50;;;;;;5055834;28;20519;-94
2022/09/30 07:02:55;;;;;;;1.67;1.57;;;23.60;66.60;;;;;;5056700;28;20554;-96
2022/09/30 07:05:42;;;;;;;2.10;2.00;;;23.50;66.50;;;;;;5056430;28;20437;-95
2022/09/30 07:08:12;;;;;;;1.70;1.60;;;23.50;66.40;;;;;;5056216;28;20438;-96
2022/09/30 07:10:39;;;;;;;1.90;1.80;;;23.50;66.50;;;;;;5056224;28;20483;-90
2022/09/30 07:13:05;;;;;;;1.63;1.53;;;23.50;66.50;;;;;;5056886;28;20468;-93
2022/09/30 07:15:32;;;;;;;1.90;1.80;;;23.50;66.30;;;;;;5055339;28;20882;-92
2022/09/30 07:18:00;;;;;;;1.70;1.60;;;23.50;65.80;;;;;;5054779;28;20446;-95
2022/09/30 07:20:27;;;;;;;2.00;1.90;;;23.50;66.00;;;;;;5054870;28;20536;-88
2022/09/30 07:22:57;;;;;;;1.80;1.70;;;23.50;65.80;;;;;;5056324;28;20486;-96
2022/09/30 07:25:24;;;;;;;2.03;1.83;;;23.60;65.50;;;;;;5057351;28;20480;-87
2022/09/30 07:27:51;;;;;;;3.10;2.53;;;23.50;65.40;;;;;;5058185;28;20450;-93
2022/09/30 07:30:18;;;;;;;2.23;2.13;;;23.50;64.90;;;;;;5057474;28;20520;-87
2022/09/30 07:32:45;;;;;;;2.03;1.83;;;23.50;64.70;;;;;;5058897;28;20481;-87
2022/09/30 07:35:13;;;;;;;2.67;2.03;;;23.60;64.90;;;;;;5058871;28;20537;-88
2022/09/30 07:37:40;;;;;;;2.20;2.00;;;23.50;64.60;;;;;;5064466;28;20548;-88
2022/09/30 07:40:08;;;;;;;1.90;1.80;;;23.60;64.20;;;;;;5062165;28;20453;-88
2022/09/30 07:42:39;;;;;;;2.63;1.90;;;23.60;64.80;;;;;;5057527;28;20486;-95
2022/09/30 07:45:07;;;;;;;1.97;1.80;;;23.60;63.90;;;;;;5060686;28;20540;-87
2022/09/30 07:47:33;;;;;;;1.70;1.60;;;23.60;63.70;;;;;;5059087;28;20437;-87
2022/09/30 07:50:00;;;;;;;2.10;2.00;;;23.60;63.60;;;;;;5059122;28;20540;-87
2022/09/30 07:52:28;;;;;;;1.80;1.70;;;23.60;63.50;;;;;;5059248;28;20449;-88
2022/09/30 07:54:55;;;;;;;1.50;1.40;;;23.80;63.70;;;;;;5063018;28;20457;-88
2022/09/30 07:57:22;;;;;;;1.73;1.50;;;23.60;63.60;;;;;;5059195;28;20450;-88
2022/09/30 07:59:49;;;;;;;1.90;1.80;;;23.60;63.70;;;;;;5057320;28;20492;-87
2022/09/30 08:02:18;;;;;;;2.00;1.90;;;23.60;63.90;;;;;;5057871;28;20473;-88
2022/09/30 08:04:45;;;;;;;1.70;1.60;;;23.70;64.20;;;;;;5057221;28;20445;-87
2022/09/30 08:07:13;;;;;;;1.93;1.83;;;23.70;64.20;;;;;;5059110;28;20449;-87
2022/09/30 08:09:41;;;;;;;1.73;1.63;;;23.70;64.30;;;;;;5058093;28;20466;-88
2022/09/30 08:12:09;;;;;;;2.37;2.17;;;23.70;64.30;;;;;;5056607;28;20465;-87
2022/09/30 08:14:36;;;;;;;1.77;1.67;;;23.70;64.40;;;;;;5058241;28;20448;-91
2022/09/30 08:17:03;;;;;;;2.17;1.97;;;23.70;64.50;;;;;;5058500;28;20796;-88
2022/09/30 08:19:32;;;;;;;1.93;1.83;;;23.80;64.50;;;;;;5055379;28;20540;-88
2022/09/30 08:21:59;;;;;;;1.70;1.60;;;23.80;64.40;;;;;;5058899;28;20441;-88
2022/09/30 08:24:26;;;;;;;1.83;1.73;;;23.90;64.30;;;;;;5059110;28;20488;-88
2022/09/30 08:26:55;;;;;;;1.70;1.60;;;24.00;64.40;;;;;;5057350;28;20453;-88
2022/09/30 08:29:22;;;;;;;1.43;1.30;;;24.00;64.10;;;;;;5057398;28;20472;-87
2022/09/30 08:31:50;;;;;;;2.47;1.83;;;24.10;64.20;;;;;;5058092;28;20440;-90
2022/09/30 08:34:17;;;;;;;1.97;1.70;;;24.10;64.10;;;;;;5063001;28;20888;-92
2022/09/30 08:36:45;;;;;;;1.63;1.53;;;24.40;64.30;;;;;;5062611;28;20426;-88
2022/09/30 08:39:12;;;;;;;1.90;1.80;;;24.20;64.10;;;;;;5060885;28;20872;-88
2022/09/30 08:42:12;;;;;;;2.00;1.83;;;24.20;64.00;;;;;;5061016;28;20552;-88
2022/09/30 08:44:43;;;;;;;1.77;1.67;;;24.20;64.10;;;;;;5059886;28;20461;-88
2022/09/30 08:47:42;;;;;;;1.80;1.70;;;24.20;64.20;;;;;;5059975;28;20442;-88
2022/09/30 08:50:16;;;;;;;1.67;1.57;;;24.30;64.20;;;;;;5057028;28;20499;-92
2022/09/30 08:52:45;;;;;;;1.93;1.83;;;24.20;64.30;;;;;;5062091;28;20858;-88
2022/09/30 08:55:34;;;;;;;2.20;1.60;;;24.20;64.30;;;;;;5059225;28;20449;-87
2022/09/30 08:58:16;;;;;;;1.90;1.80;;;24.50;64.60;;;;;;5059529;28;20888;-88
2022/09/30 09:00:43;;;;;;;2.07;1.97;;;24.30;64.40;;;;;;5057826;28;20444;-88
2022/09/30 09:03:12;;;;;;;1.60;1.50;;;24.30;64.50;;;;;;5061141;28;20531;-94
2022/09/30 09:05:50;;;;;;;1.43;1.33;;;24.40;64.70;;;;;;5060953;28;20503;-89
2022/09/30 09:08:29;;;;;;;1.63;1.53;;;24.30;64.60;;;;;;5061837;28;20528;-87
2022/09/30 09:11:04;;;;;;;1.73;1.63;;;24.40;64.60;;;;;;5056047;28;20461;-90
2022/09/30 09:13:47;;;;;;;1.60;1.40;;;24.30;64.00;;;;;;5056778;28;20437;-88
2022/09/30 09:16:21;;;;;;;1.50;1.27;;;24.40;64.10;;;;;;5059701;28;20492;-94
2022/09/30 09:18:57;;;;;;;2.10;2.00;;;24.40;64.00;;;;;;5057882;28;20432;-87
2022/09/30 09:21:34;;;;;;;1.40;1.30;;;24.50;64.00;;;;;;5057921;28;20429;-88
2022/09/30 09:24:02;;;;;;;1.60;1.50;;;24.40;64.00;;;;;;5058609;28;20976;-88
2022/09/30 09:26:34;;;;;;;1.40;1.30;;;24.40;64.00;;;;;;5057012;28;20460;-87
2022/09/30 09:29:19;;;;;;;2.13;1.80;;;24.40;64.00;;;;;;5058293;28;20480;-88
2022/09/30 09:31:47;;;;;;;1.67;1.57;;;24.50;63.90;;;;;;5059965;28;20435;-88
2022/09/30 09:34:14;;;;;;;1.60;1.50;;;24.40;63.90;;;;;;5059541;28;20450;-89
2022/09/30 09:36:57;;;;;;;1.40;1.30;;;24.40;63.80;;;;;;5061170;28;20934;-88
2022/09/30 09:39:57;;;;;;;1.77;1.67;;;24.50;63.80;;;;;;5060630;28;20461;-88
2022/09/30 09:42:36;;;;;;;2.10;1.80;;;24.50;63.90;;;;;;5061191;28;20498;-88
2022/09/30 09:45:13;;;;;;;2.40;1.90;;;24.50;63.80;;;;;;5057652;28;20452;-93
2022/09/30 09:47:42;;;;;;;1.60;1.50;;;24.50;63.80;;;;;;5060045;28;20875;-88
2022/09/30 09:50:17;;;;;;;2.80;1.50;;;24.50;63.90;;;;;;5059591;28;20461;-91
2022/09/30 09:52:59;;;;;;;3.50;1.27;;;24.50;63.80;;;;;;5058839;28;20442;-88
2022/09/30 09:55:28;;;;;;;1.53;1.30;;;24.50;63.80;;;;;;5058261;28;20468;-88
2022/09/30 09:58:07;;;;;;;1.77;1.67;;;24.50;64.00;;;;;;5060499;28;20445;-88
2022/09/30 10:03:23;;;;;;;2.20;1.53;;;24.50;64.00;;;;;;5061977;28;20468;-88
2022/09/30 10:06:01;;;;;;;1.57;1.30;;;24.50;64.10;;;;;;5061675;28;20532;-87
2022/09/30 10:08:30;;;;;;;1.43;1.33;;;24.50;63.50;;;;;;5058732;28;20441;-88
2022/09/30 10:11:06;;;;;;;1.40;1.30;;;24.50;63.70;;;;;;5062526;28;20508;-88
2022/09/30 10:13:42;;;;;;;1.20;1.10;;;24.60;63.80;;;;;;5078026;28;20460;-88
2022/09/30 10:16:27;;;;;;;1.70;1.60;;;24.60;64.10;;;;;;5074573;28;20456;-88
2022/09/30 10:18:55;;;;;;;1.60;1.50;;;24.60;63.90;;;;;;5072230;28;20535;-88
2022/09/30 10:21:23;;;;;;;1.37;1.27;;;24.60;64.20;;;;;;5062232;28;20444;-88
2022/09/30 10:23:50;;;;;;;1.80;1.60;;;24.60;63.80;;;;;;5059544;28;20580;-88
2022/09/30 10:26:19;;;;;;;1.67;1.43;;;24.60;63.90;;;;;;5063041;28;20432;-88
2022/09/30 10:28:49;;;;;;;2.70;1.40;;;24.70;63.80;;;;;;5061483;28;20541;-88
2022/09/30 10:31:24;;;;;;;1.40;1.30;;;24.70;63.90;;;;;;5064495;28;20428;-88
2022/09/30 10:34:10;;;;;;;1.50;1.40;;;24.70;64.20;;;;;;5058652;28;20429;-89
2022/09/30 10:36:40;;;;;;;1.53;1.43;;;24.70;64.10;;;;;;5061031;28;20418;-88
2022/09/30 10:39:28;;;;;;;1.40;1.30;;;24.70;64.00;;;;;;5061405;28;20437;-88
2022/09/30 10:42:12;;;;;;;1.40;1.30;;;24.70;64.10;;;;;;5064586;28;20455;-89
2022/09/30 10:44:45;;;;;;;2.03;1.73;;;24.70;64.00;;;;;;5065402;28;20503;-88
2022/09/30 10:47:25;;;;;;;1.60;1.50;;;24.80;64.40;;;;;;5060503;28;20430;-88
2022/09/30 10:49:55;;;;;;;1.10;1.00;;;24.80;64.50;;;;;;5060838;28;20472;-89
2022/09/30 10:52:25;;;;;;;1.40;1.30;;;24.80;64.30;;;;;;5061929;28;20932;-88
2022/09/30 10:55:02;;;;;;;1.40;1.30;;;24.80;64.30;;;;;;5061952;28;20453;-88
2022/09/30 10:57:33;;;;;;;2.27;1.47;;;24.80;64.30;;;;;;5061239;28;20452;-88
2022/09/30 11:00:04;;;;;;;1.20;1.10;;;24.80;64.40;;;;;;5043253;28;20519;-88
2022/09/30 11:02:37;;;;;;;1.73;1.00;;;24.80;64.50;;;;;;5061108;28;20799;-88
2022/09/30 11:05:12;;;;;;;1.20;1.10;;;24.80;64.20;;;;;;5060623;28;20836;-88
2022/09/30 11:07:44;;;;;;;1.90;1.80;;;24.80;64.40;;;;;;5062603;28;20602;-89
2022/09/30 11:10:29;;;;;;;1.43;1.33;;;25.00;64.30;;;;;;5061550;28;20475;-88
2022/09/30 11:13:13;;;;;;;1.37;1.27;;;24.80;64.50;;;;;;5067175;28;20452;-88
2022/09/30 11:16:04;;;;;;;1.20;1.00;;;24.80;64.30;;;;;;5065978;28;20486;-88
2022/09/30 11:18:37;;;;;;;3.30;1.00;;;24.80;64.60;;;;;;5058676;28;20445;-87
2022/09/30 11:21:10;;;;;;;1.10;0.90;;;24.80;64.40;;;;;;5062912;28;20465;-88
2022/09/30 11:23:43;;;;;;;1.30;1.10;;;24.80;64.80;;;;;;5063923;28;20460;-88
2022/09/30 11:26:18;;;;;;;1.20;1.10;;;24.80;65.50;;;;;;5070196;22;20591;-88
2022/09/30 11:29:26;;;;;;;1.10;1.00;;;24.80;64.70;;;;;;5064185;28;20428;-88
2022/09/30 11:32:08;;;;;;;1.10;1.00;;;24.80;64.70;;;;;;5067497;28;20456;-88
2022/09/30 11:34:53;;;;;;;1.47;1.37;;;24.80;64.60;;;;;;5062129;28;20442;-89
2022/09/30 11:37:43;;;;;;;0.90;0.90;;;24.80;65.00;;;;;;5064102;28;20453;-88
2022/09/30 11:40:29;;;;;;;1.20;1.10;;;24.80;65.00;;;;;;5063518;28;20487;-88
2022/09/30 11:43:06;;;;;;;1.77;1.30;;;24.80;65.00;;;;;;5038789;28;20465;-92
2022/09/30 11:45:41;;;;;;;1.30;1.20;;;24.70;64.60;;;;;;5055617;28;20438;-92
2022/09/30 11:48:34;;;;;;;1.30;1.17;;;24.80;64.70;;;;;;5061986;28;20433;-90
2022/09/30 11:51:11;;;;;;;1.13;1.03;;;24.80;64.80;;;;;;5043944;28;20453;-92
2022/09/30 11:53:48;;;;;;;1.30;1.00;;;24.70;64.90;;;;;;5058807;28;20941;-90
2022/09/30 11:56:35;;;;;;;1.47;1.10;;;24.70;65.00;;;;;;5059504;28;20438;-91
2022/09/30 11:59:08;;;;;;;3.00;1.10;;;24.80;65.10;;;;;;5059997;28;20797;-90
2022/09/30 12:01:40;;;;;;;3.20;1.17;;;24.70;65.20;;;;;;5058460;28;20433;-90
2022/09/30 12:04:12;;;;;;;1.80;1.50;;;24.80;65.30;;;;;;5057558;28;20484;-90
2022/09/30 12:06:46;;;;;;;1.30;1.20;;;24.80;65.30;;;;;;5057277;28;20435;-89
2022/09/30 12:09:20;;;;;;;1.50;1.33;;;24.80;65.40;;;;;;5055309;28;20441;-90
2022/09/30 12:11:51;;;;;;;2.50;1.13;;;24.80;65.50;;;;;;5054458;28;20470;-88
2022/09/30 12:14:25;;;;;;;1.77;1.10;;;24.80;65.60;;;;;;5054263;28;20503;-90
2022/09/30 12:16:52;;;;;;;1.20;1.10;;;24.90;65.70;;;;;;5054791;28;20450;-90
2022/09/30 12:19:25;;;;;;;2.10;1.00;;;24.90;65.80;;;;;;5055364;28;20446;-90
2022/09/30 12:21:58;;;;;;;1.20;1.10;;;24.90;65.80;;;;;;5055327;28;20446;-89
2022/09/30 12:24:31;;;;;;;1.43;1.00;;;25.00;65.90;;;;;;5054831;28;20635;-90
2022/09/30 12:27:00;;;;;;;1.23;1.13;;;25.00;65.90;;;;;;5057969;28;20478;-89
2022/09/30 12:33:04;;;;;;;1.20;1.10;;;25.00;65.90;;;;;;5054003;28;20928;-89
2022/09/30 12:35:47;;;;;;;1.37;1.27;;;25.10;66.00;;;;;;5055063;28;20455;-94
2022/09/30 12:38:32;;;;;;;1.40;1.30;;;25.10;66.10;;;;;;5054288;28;20943;-89
2022/09/30 12:41:10;;;;;;;4.77;1.20;;;25.10;66.10;;;;;;5053925;28;20553;-94
2022/09/30 12:44:05;;;;;;;1.17;1.07;;;25.10;66.10;;;;;;5054037;28;20442;-89
2022/09/30 12:46:51;;;;;;;1.10;1.00;;;25.20;66.00;;;;;;5051479;28;20456;-90
2022/09/30 12:49:22;;;;;;;1.87;0.90;;;25.30;66.10;;;;;;5054370;28;20814;-90
2022/09/30 12:51:51;;;;;;;2.33;1.07;;;25.20;66.10;;;;;;5053975;28;20445;-95
2022/09/30 12:54:24;;;;;;;1.27;1.10;;;25.20;66.00;;;;;;5054136;28;20453;-95
2022/09/30 12:56:58;;;;;;;2.30;1.00;;;25.20;66.00;;;;;;5055051;28;20438;-90
2022/09/30 12:59:28;;;;;;;1.07;0.90;;;25.20;66.00;;;;;;5053674;28;20517;-91
2022/09/30 13:01:56;;;;;;;1.03;0.90;;;25.30;66.10;;;;;;5053857;28;20482;-90
2022/09/30 13:04:33;;;;;;;1.10;1.00;;;25.30;66.10;;;;;;5054334;28;20485;-89
2022/09/30 13:07:21;;;;;;;4.10;1.20;;;25.20;65.40;;;;;;5055636;28;20441;-89
2022/09/30 13:10:26;;;;;;;2.03;1.17;;;25.20;64.60;;;;;;5047116;28;20446;-89
2022/09/30 13:13:22;;;;;;;1.40;0.90;;;25.10;64.20;;;;;;5055009;28;20443;-89
2022/09/30 13:15:49;;;;;;;1.30;1.20;;;25.00;64.00;;;;;;5054853;28;20449;-89
2022/09/30 13:18:53;;;;;;;1.10;0.90;;;25.00;63.90;;;;;;5054680;28;20435;-96
2022/09/30 13:21:23;;;;;;;1.10;1.00;;;25.00;63.80;;;;;;5053799;28;20917;-88
2022/09/30 13:23:51;;;;;;;1.53;1.10;;;24.90;63.50;;;;;;5054064;28;20438;-90
2022/09/30 13:26:40;;;;;;;1.20;1.10;;;24.90;63.70;;;;;;5054217;28;20457;-96
2022/09/30 13:29:38;;;;;;;1.87;1.00;;;24.90;63.70;;;;;;5054792;28;20878;-89
2022/09/30 13:32:08;;;;;;;1.47;1.13;;;24.90;63.80;;;;;;5054281;28;20529;-89